sensor_id;sensor_type;location;lat;lon;timestamp;P1;durP1;ratioP1;P2;durP2;ratioP2
73084;SDS011;62974;49.460;10.892;2023-01-28T00:01:28;2.25;;;1.30;;
73084;SDS011;62974;49.460;10.892;2023-01-28T00:03:56;4.40;;;1.60;;
73084;SDS011;62974;49.460;10.892;2023-01-28T00:06:24;4.05;;;1.90;;
73084;SDS011;62974;49.460;10.892;2023-01-28T00:08:51;4.22;;;2.45;;
73084;SDS011;62974;49.460;10.892;2023-01-28T00:11:21;4.60;;;2.45;;
73084;SDS011;62974;49.460;10.892;2023-01-28T00:13:49;3.90;;;1.17;;
73084;SDS011;62974;49.460;10.892;2023-01-28T00:16:19;3.78;;;1.83;;
73084;SDS011;62974;49.460;10.892;2023-01-28T00:18:47;2.00;;;0.93;;
73084;SDS011;62974;49.460;10.892;2023-01-28T00:21:15;2.83;;;1.58;;
73084;SDS011;62974;49.460;10.892;2023-01-28T00:23:42;2.85;;;1.58;;
73084;SDS011;62974;49.460;10.892;2023-01-28T00:26:16;2.60;;;1.38;;
73084;SDS011;62974;49.460;10.892;2023-01-28T00:28:43;7.90;;;3.20;;
73084;SDS011;62974;49.460;10.892;2023-01-28T00:31:12;3.08;;;1.80;;
73084;SDS011;62974;49.460;10.892;2023-01-28T00:33:43;6.55;;;2.85;;
73084;SDS011;62974;49.460;10.892;2023-01-28T00:36:12;3.40;;;1.15;;
73084;SDS011;62974;49.460;10.892;2023-01-28T00:41:08;6.57;;;2.72;;
73084;SDS011;62974;49.460;10.892;2023-01-28T00:46:05;3.47;;;2.15;;
73084;SDS011;62974;49.460;10.892;2023-01-28T00:48:33;3.35;;;1.50;;
73084;SDS011;62974;49.460;10.892;2023-01-28T00:51:03;3.47;;;1.80;;
73084;SDS011;62974;49.460;10.892;2023-01-28T00:53:31;2.75;;;1.20;;
73084;SDS011;62974;49.460;10.892;2023-01-28T00:56:01;4.72;;;2.13;;
73084;SDS011;62974;49.460;10.892;2023-01-28T00:58:28;4.05;;;2.40;;
73084;SDS011;62974;49.460;10.892;2023-01-28T01:00:56;6.18;;;3.08;;
73084;SDS011;62974;49.460;10.892;2023-01-28T01:03:23;3.47;;;1.45;;
73084;SDS011;62974;49.460;10.892;2023-01-28T01:05:51;4.32;;;2.40;;
73084;SDS011;62974;49.460;10.892;2023-01-28T01:08:20;7.90;;;3.65;;
73084;SDS011;62974;49.460;10.892;2023-01-28T01:13:28;6.35;;;2.83;;
73084;SDS011;62974;49.460;10.892;2023-01-28T01:16:02;6.20;;;2.42;;
73084;SDS011;62974;49.460;10.892;2023-01-28T01:18:33;5.10;;;2.80;;
73084;SDS011;62974;49.460;10.892;2023-01-28T01:21:02;6.55;;;2.70;;
73084;SDS011;62974;49.460;10.892;2023-01-28T01:23:34;3.20;;;1.83;;
73084;SDS011;62974;49.460;10.892;2023-01-28T01:26:02;6.63;;;3.00;;
73084;SDS011;62974;49.460;10.892;2023-01-28T01:28:30;4.32;;;2.35;;
73084;SDS011;62974;49.460;10.892;2023-01-28T01:30:58;6.55;;;2.63;;
73084;SDS011;62974;49.460;10.892;2023-01-28T01:33:27;5.18;;;2.33;;
73084;SDS011;62974;49.460;10.892;2023-01-28T01:35:55;4.40;;;2.50;;
73084;SDS011;62974;49.460;10.892;2023-01-28T01:38:23;5.03;;;2.30;;
73084;SDS011;62974;49.460;10.892;2023-01-28T01:40:54;1.65;;;1.17;;
73084;SDS011;62974;49.460;10.892;2023-01-28T01:43:23;4.18;;;2.30;;
73084;SDS011;62974;49.460;10.892;2023-01-28T01:45:51;3.38;;;2.03;;
73084;SDS011;62974;49.460;10.892;2023-01-28T01:48:23;5.93;;;2.85;;
73084;SDS011;62974;49.460;10.892;2023-01-28T01:50:58;5.05;;;2.45;;
73084;SDS011;62974;49.460;10.892;2023-01-28T01:53:28;7.13;;;2.63;;
73084;SDS011;62974;49.460;10.892;2023-01-28T01:58:28;7.85;;;3.10;;
73084;SDS011;62974;49.460;10.892;2023-01-28T02:00:59;5.88;;;3.10;;
73084;SDS011;62974;49.460;10.892;2023-01-28T02:03:28;3.90;;;2.10;;
73084;SDS011;62974;49.460;10.892;2023-01-28T02:06:03;4.75;;;2.13;;
73084;SDS011;62974;49.460;10.892;2023-01-28T02:08:31;6.85;;;2.85;;
73084;SDS011;62974;49.460;10.892;2023-01-28T02:11:00;8.85;;;3.47;;
73084;SDS011;62974;49.460;10.892;2023-01-28T02:13:31;5.25;;;2.80;;
73084;SDS011;62974;49.460;10.892;2023-01-28T02:16:02;1.83;;;0.93;;
73084;SDS011;62974;49.460;10.892;2023-01-28T02:21:07;5.55;;;3.78;;
73084;SDS011;62974;49.460;10.892;2023-01-28T02:23:59;7.43;;;3.67;;
73084;SDS011;62974;49.460;10.892;2023-01-28T02:27:01;4.93;;;2.80;;
73084;SDS011;62974;49.460;10.892;2023-01-28T02:29:42;6.07;;;3.20;;
73084;SDS011;62974;49.460;10.892;2023-01-28T02:32:18;8.85;;;4.00;;
73084;SDS011;62974;49.460;10.892;2023-01-28T02:34:50;8.98;;;3.75;;
73084;SDS011;62974;49.460;10.892;2023-01-28T02:37:26;10.77;;;3.65;;
73084;SDS011;62974;49.460;10.892;2023-01-28T02:40:00;4.38;;;2.75;;
73084;SDS011;62974;49.460;10.892;2023-01-28T02:42:32;9.57;;;4.10;;
73084;SDS011;62974;49.460;10.892;2023-01-28T02:45:05;9.35;;;3.92;;
73084;SDS011;62974;49.460;10.892;2023-01-28T02:47:41;1.83;;;0.88;;
73084;SDS011;62974;49.460;10.892;2023-01-28T02:50:24;5.10;;;2.97;;
73084;SDS011;62974;49.460;10.892;2023-01-28T02:53:06;9.35;;;3.15;;
73084;SDS011;62974;49.460;10.892;2023-01-28T02:56:00;8.57;;;4.10;;
73084;SDS011;62974;49.460;10.892;2023-01-28T02:58:41;9.38;;;4.60;;
73084;SDS011;62974;49.460;10.892;2023-01-28T03:01:16;11.65;;;4.63;;
73084;SDS011;62974;49.460;10.892;2023-01-28T03:03:55;9.40;;;4.82;;
73084;SDS011;62974;49.460;10.892;2023-01-28T03:06:26;6.15;;;3.05;;
73084;SDS011;62974;49.460;10.892;2023-01-28T03:08:58;7.45;;;3.17;;
73084;SDS011;62974;49.460;10.892;2023-01-28T03:11:46;11.10;;;4.68;;
73084;SDS011;62974;49.460;10.892;2023-01-28T03:14:34;10.10;;;4.03;;
73084;SDS011;62974;49.460;10.892;2023-01-28T03:17:25;9.98;;;3.55;;
73084;SDS011;62974;49.460;10.892;2023-01-28T03:20:14;7.05;;;3.33;;
73084;SDS011;62974;49.460;10.892;2023-01-28T03:23:00;8.18;;;3.35;;
73084;SDS011;62974;49.460;10.892;2023-01-28T03:25:51;9.77;;;4.93;;
73084;SDS011;62974;49.460;10.892;2023-01-28T03:28:40;12.73;;;4.57;;
73084;SDS011;62974;49.460;10.892;2023-01-28T03:31:28;10.00;;;4.75;;
73084;SDS011;62974;49.460;10.892;2023-01-28T03:34:15;7.45;;;3.72;;
73084;SDS011;62974;49.460;10.892;2023-01-28T03:39:29;10.40;;;3.60;;
73084;SDS011;62974;49.460;10.892;2023-01-28T03:41:58;9.10;;;3.92;;
73084;SDS011;62974;49.460;10.892;2023-01-28T03:44:26;6.82;;;2.75;;
73084;SDS011;62974;49.460;10.892;2023-01-28T03:47:11;16.73;;;6.00;;
73084;SDS011;62974;49.460;10.892;2023-01-28T03:49:41;11.30;;;5.10;;
73084;SDS011;62974;49.460;10.892;2023-01-28T03:52:10;16.40;;;6.45;;
73084;SDS011;62974;49.460;10.892;2023-01-28T03:54:38;11.65;;;4.68;;
73084;SDS011;62974;49.460;10.892;2023-01-28T03:57:05;17.80;;;6.13;;
73084;SDS011;62974;49.460;10.892;2023-01-28T03:59:33;13.30;;;5.82;;
73084;SDS011;62974;49.460;10.892;2023-01-28T04:02:00;10.80;;;4.00;;
73084;SDS011;62974;49.460;10.892;2023-01-28T04:04:29;14.05;;;5.13;;
73084;SDS011;62974;49.460;10.892;2023-01-28T04:06:59;8.45;;;3.92;;
73084;SDS011;62974;49.460;10.892;2023-01-28T04:09:26;9.98;;;4.72;;
73084;SDS011;62974;49.460;10.892;2023-01-28T04:11:54;14.60;;;6.05;;
73084;SDS011;62974;49.460;10.892;2023-01-28T04:14:21;10.77;;;4.43;;
73084;SDS011;62974;49.460;10.892;2023-01-28T04:16:49;13.20;;;5.10;;
73084;SDS011;62974;49.460;10.892;2023-01-28T04:19:17;12.93;;;4.65;;
73084;SDS011;62974;49.460;10.892;2023-01-28T04:21:44;12.25;;;5.22;;
73084;SDS011;62974;49.460;10.892;2023-01-28T04:24:14;9.77;;;4.15;;
73084;SDS011;62974;49.460;10.892;2023-01-28T04:26:42;11.45;;;4.47;;
73084;SDS011;62974;49.460;10.892;2023-01-28T04:29:09;16.45;;;7.30;;
73084;SDS011;62974;49.460;10.892;2023-01-28T04:31:37;11.32;;;4.95;;
73084;SDS011;62974;49.460;10.892;2023-01-28T04:34:07;12.57;;;5.40;;
73084;SDS011;62974;49.460;10.892;2023-01-28T04:36:35;7.22;;;3.17;;
73084;SDS011;62974;49.460;10.892;2023-01-28T04:39:02;11.43;;;4.95;;
73084;SDS011;62974;49.460;10.892;2023-01-28T04:41:31;19.77;;;5.93;;
73084;SDS011;62974;49.460;10.892;2023-01-28T04:43:59;9.48;;;3.67;;
73084;SDS011;62974;49.460;10.892;2023-01-28T04:46:26;7.95;;;4.30;;
73084;SDS011;62974;49.460;10.892;2023-01-28T04:48:54;12.88;;;4.53;;
73084;SDS011;62974;49.460;10.892;2023-01-28T04:51:21;9.05;;;4.55;;
73084;SDS011;62974;49.460;10.892;2023-01-28T04:53:49;10.88;;;4.18;;
73084;SDS011;62974;49.460;10.892;2023-01-28T04:56:16;12.95;;;4.72;;
73084;SDS011;62974;49.460;10.892;2023-01-28T04:58:45;10.43;;;4.25;;
73084;SDS011;62974;49.460;10.892;2023-01-28T05:01:12;7.47;;;4.10;;
73084;SDS011;62974;49.460;10.892;2023-01-28T05:03:40;17.67;;;5.88;;
73084;SDS011;62974;49.460;10.892;2023-01-28T05:06:07;10.05;;;4.40;;
73084;SDS011;62974;49.460;10.892;2023-01-28T05:08:35;13.52;;;5.88;;
73084;SDS011;62974;49.460;10.892;2023-01-28T05:11:03;10.25;;;5.13;;
73084;SDS011;62974;49.460;10.892;2023-01-28T05:13:30;8.95;;;3.78;;
73084;SDS011;62974;49.460;10.892;2023-01-28T05:15:59;8.70;;;3.65;;
73084;SDS011;62974;49.460;10.892;2023-01-28T05:18:27;12.88;;;5.93;;
73084;SDS011;62974;49.460;10.892;2023-01-28T05:20:54;18.33;;;5.93;;
73084;SDS011;62974;49.460;10.892;2023-01-28T05:23:22;14.43;;;5.60;;
73084;SDS011;62974;49.460;10.892;2023-01-28T05:25:49;10.30;;;3.85;;
73084;SDS011;62974;49.460;10.892;2023-01-28T05:28:17;9.23;;;3.70;;
73084;SDS011;62974;49.460;10.892;2023-01-28T05:30:44;11.60;;;4.47;;
73084;SDS011;62974;49.460;10.892;2023-01-28T05:33:13;10.73;;;4.32;;
73084;SDS011;62974;49.460;10.892;2023-01-28T05:35:40;8.20;;;3.42;;
73084;SDS011;62974;49.460;10.892;2023-01-28T05:38:08;12.07;;;5.15;;
73084;SDS011;62974;49.460;10.892;2023-01-28T05:40:36;15.10;;;6.65;;
73084;SDS011;62974;49.460;10.892;2023-01-28T05:43:03;14.70;;;6.72;;
73084;SDS011;62974;49.460;10.892;2023-01-28T05:45:31;17.08;;;6.55;;
73084;SDS011;62974;49.460;10.892;2023-01-28T05:47:58;11.55;;;5.35;;
73084;SDS011;62974;49.460;10.892;2023-01-28T05:50:27;12.45;;;4.88;;
73084;SDS011;62974;49.460;10.892;2023-01-28T05:52:54;11.25;;;4.88;;
73084;SDS011;62974;49.460;10.892;2023-01-28T05:55:22;13.90;;;5.60;;
73084;SDS011;62974;49.460;10.892;2023-01-28T05:57:50;14.07;;;5.10;;
73084;SDS011;62974;49.460;10.892;2023-01-28T06:00:17;11.32;;;4.82;;
73084;SDS011;62974;49.460;10.892;2023-01-28T06:02:45;12.50;;;5.47;;
73084;SDS011;62974;49.460;10.892;2023-01-28T06:05:13;10.40;;;5.38;;
73084;SDS011;62974;49.460;10.892;2023-01-28T06:07:44;10.48;;;5.55;;
73084;SDS011;62974;49.460;10.892;2023-01-28T06:10:12;13.13;;;7.05;;
73084;SDS011;62974;49.460;10.892;2023-01-28T06:12:41;16.65;;;6.72;;
73084;SDS011;62974;49.460;10.892;2023-01-28T06:15:09;20.20;;;7.80;;
73084;SDS011;62974;49.460;10.892;2023-01-28T06:17:37;16.00;;;5.22;;
73084;SDS011;62974;49.460;10.892;2023-01-28T06:20:05;15.45;;;6.70;;
73084;SDS011;62974;49.460;10.892;2023-01-28T06:25:03;15.77;;;7.35;;
73084;SDS011;62974;49.460;10.892;2023-01-28T06:27:31;18.05;;;6.80;;
73084;SDS011;62974;49.460;10.892;2023-01-28T06:29:59;19.00;;;7.28;;
73084;SDS011;62974;49.460;10.892;2023-01-28T06:32:26;18.92;;;7.55;;
73084;SDS011;62974;49.460;10.892;2023-01-28T06:34:54;18.38;;;7.15;;
73084;SDS011;62974;49.460;10.892;2023-01-28T06:37:22;10.93;;;4.85;;
73084;SDS011;62974;49.460;10.892;2023-01-28T06:39:51;10.98;;;5.35;;
73084;SDS011;62974;49.460;10.892;2023-01-28T06:42:20;15.82;;;5.28;;
73084;SDS011;62974;49.460;10.892;2023-01-28T06:47:15;15.23;;;5.25;;
73084;SDS011;62974;49.460;10.892;2023-01-28T06:49:42;17.70;;;5.63;;
73084;SDS011;62974;49.460;10.892;2023-01-28T06:52:10;16.73;;;6.60;;
73084;SDS011;62974;49.460;10.892;2023-01-28T06:54:37;9.40;;;4.32;;
73084;SDS011;62974;49.460;10.892;2023-01-28T06:57:05;17.52;;;6.60;;
73084;SDS011;62974;49.460;10.892;2023-01-28T06:59:34;14.73;;;5.50;;
73084;SDS011;62974;49.460;10.892;2023-01-28T07:02:01;14.75;;;6.80;;
73084;SDS011;62974;49.460;10.892;2023-01-28T07:04:29;16.10;;;6.90;;
73084;SDS011;62974;49.460;10.892;2023-01-28T07:06:57;16.35;;;5.93;;
73084;SDS011;62974;49.460;10.892;2023-01-28T07:09:24;20.73;;;7.57;;
73084;SDS011;62974;49.460;10.892;2023-01-28T07:11:52;19.25;;;6.40;;
73084;SDS011;62974;49.460;10.892;2023-01-28T07:14:19;15.20;;;6.93;;
73084;SDS011;62974;49.460;10.892;2023-01-28T07:16:48;9.73;;;4.00;;
73084;SDS011;62974;49.460;10.892;2023-01-28T07:19:16;14.73;;;4.65;;
73084;SDS011;62974;49.460;10.892;2023-01-28T07:21:43;8.15;;;4.40;;
73084;SDS011;62974;49.460;10.892;2023-01-28T07:24:11;4.93;;;3.05;;
73084;SDS011;62974;49.460;10.892;2023-01-28T07:26:38;6.13;;;3.10;;
73084;SDS011;62974;49.460;10.892;2023-01-28T07:29:07;10.40;;;4.82;;
73084;SDS011;62974;49.460;10.892;2023-01-28T07:31:34;14.85;;;4.25;;
73084;SDS011;62974;49.460;10.892;2023-01-28T07:34:03;7.15;;;3.80;;
73084;SDS011;62974;49.460;10.892;2023-01-28T07:36:31;18.52;;;6.05;;
73084;SDS011;62974;49.460;10.892;2023-01-28T07:38:58;3.70;;;2.25;;
73084;SDS011;62974;49.460;10.892;2023-01-28T07:41:26;9.20;;;4.07;;
73084;SDS011;62974;49.460;10.892;2023-01-28T07:43:54;14.27;;;5.57;;
73084;SDS011;62974;49.460;10.892;2023-01-28T07:46:21;8.90;;;3.97;;
73084;SDS011;62974;49.460;10.892;2023-01-28T07:48:49;13.88;;;5.63;;
73084;SDS011;62974;49.460;10.892;2023-01-28T07:51:17;10.07;;;5.00;;
73084;SDS011;62974;49.460;10.892;2023-01-28T07:53:45;7.03;;;3.67;;
73084;SDS011;62974;49.460;10.892;2023-01-28T07:56:12;7.82;;;4.03;;
73084;SDS011;62974;49.460;10.892;2023-01-28T07:58:40;8.18;;;3.30;;
73084;SDS011;62974;49.460;10.892;2023-01-28T08:01:07;6.70;;;2.90;;
73084;SDS011;62974;49.460;10.892;2023-01-28T08:03:35;9.20;;;3.40;;
73084;SDS011;62974;49.460;10.892;2023-01-28T08:06:03;5.95;;;2.08;;
73084;SDS011;62974;49.460;10.892;2023-01-28T08:08:32;5.72;;;2.55;;
73084;SDS011;62974;49.460;10.892;2023-01-28T08:11:04;3.60;;;2.50;;
73084;SDS011;62974;49.460;10.892;2023-01-28T08:13:33;7.93;;;3.80;;
73084;SDS011;62974;49.460;10.892;2023-01-28T08:16:01;14.18;;;4.40;;
73084;SDS011;62974;49.460;10.892;2023-01-28T08:18:29;11.35;;;4.10;;
73084;SDS011;62974;49.460;10.892;2023-01-28T08:20:56;3.45;;;2.40;;
73084;SDS011;62974;49.460;10.892;2023-01-28T08:23:25;10.63;;;3.97;;
73084;SDS011;62974;49.460;10.892;2023-01-28T08:25:56;9.25;;;3.40;;
73084;SDS011;62974;49.460;10.892;2023-01-28T08:28:25;4.80;;;2.85;;
73084;SDS011;62974;49.460;10.892;2023-01-28T08:30:53;10.70;;;3.60;;
73084;SDS011;62974;49.460;10.892;2023-01-28T08:33:20;9.55;;;4.05;;
73084;SDS011;62974;49.460;10.892;2023-01-28T08:35:48;5.85;;;3.00;;
73084;SDS011;62974;49.460;10.892;2023-01-28T08:38:15;7.97;;;3.33;;
73084;SDS011;62974;49.460;10.892;2023-01-28T08:40:45;8.65;;;2.38;;
73084;SDS011;62974;49.460;10.892;2023-01-28T08:43:14;10.07;;;4.43;;
73084;SDS011;62974;49.460;10.892;2023-01-28T08:45:41;7.15;;;3.13;;
73084;SDS011;62974;49.460;10.892;2023-01-28T08:48:10;7.53;;;2.80;;
73084;SDS011;62974;49.460;10.892;2023-01-28T08:50:40;11.07;;;3.17;;
73084;SDS011;62974;49.460;10.892;2023-01-28T08:53:09;7.20;;;2.90;;
73084;SDS011;62974;49.460;10.892;2023-01-28T08:55:38;7.90;;;3.30;;
73084;SDS011;62974;49.460;10.892;2023-01-28T08:58:07;4.18;;;2.17;;
73084;SDS011;62974;49.460;10.892;2023-01-28T09:00:38;6.43;;;2.38;;
73084;SDS011;62974;49.460;10.892;2023-01-28T09:03:06;4.20;;;2.22;;
73084;SDS011;62974;49.460;10.892;2023-01-28T09:05:34;5.00;;;2.50;;
73084;SDS011;62974;49.460;10.892;2023-01-28T09:08:03;5.25;;;2.10;;
73084;SDS011;62974;49.460;10.892;2023-01-28T09:10:33;6.60;;;1.95;;
73084;SDS011;62974;49.460;10.892;2023-01-28T09:13:05;5.40;;;2.13;;
73084;SDS011;62974;49.460;10.892;2023-01-28T09:15:34;5.47;;;1.90;;
73084;SDS011;62974;49.460;10.892;2023-01-28T09:18:03;5.50;;;2.72;;
73084;SDS011;62974;49.460;10.892;2023-01-28T09:20:30;0.55;;;0.55;;
73084;SDS011;62974;49.460;10.892;2023-01-28T09:23:00;4.35;;;1.98;;
73084;SDS011;62974;49.460;10.892;2023-01-28T09:25:28;4.97;;;2.08;;
73084;SDS011;62974;49.460;10.892;2023-01-28T09:27:56;4.00;;;1.92;;
73084;SDS011;62974;49.460;10.892;2023-01-28T09:30:24;5.55;;;2.47;;
73084;SDS011;62974;49.460;10.892;2023-01-28T09:32:52;2.13;;;1.20;;
73084;SDS011;62974;49.460;10.892;2023-01-28T09:35:22;3.55;;;1.83;;
73084;SDS011;62974;49.460;10.892;2023-01-28T09:37:50;2.97;;;1.75;;
73084;SDS011;62974;49.460;10.892;2023-01-28T09:40:19;2.63;;;1.20;;
73084;SDS011;62974;49.460;10.892;2023-01-28T09:42:58;4.63;;;1.65;;
73084;SDS011;62974;49.460;10.892;2023-01-28T09:45:39;1.77;;;1.02;;
73084;SDS011;62974;49.460;10.892;2023-01-28T09:48:09;1.33;;;0.75;;
73084;SDS011;62974;49.460;10.892;2023-01-28T09:50:43;4.82;;;1.48;;
73084;SDS011;62974;49.460;10.892;2023-01-28T09:53:15;3.22;;;1.60;;
73084;SDS011;62974;49.460;10.892;2023-01-28T09:55:46;2.25;;;1.42;;
73084;SDS011;62974;49.460;10.892;2023-01-28T09:58:16;0.80;;;0.73;;
73084;SDS011;62974;49.460;10.892;2023-01-28T10:00:46;2.78;;;1.50;;
73084;SDS011;62974;49.460;10.892;2023-01-28T10:06:25;2.65;;;1.83;;
73084;SDS011;62974;49.460;10.892;2023-01-28T10:09:11;0.13;;;0.13;;
73084;SDS011;62974;49.460;10.892;2023-01-28T10:11:55;4.93;;;2.03;;
73084;SDS011;62974;49.460;10.892;2023-01-28T10:14:38;3.13;;;0.93;;
73084;SDS011;62974;49.460;10.892;2023-01-28T10:17:16;2.08;;;1.15;;
73084;SDS011;62974;49.460;10.892;2023-01-28T10:19:53;2.58;;;1.73;;
73084;SDS011;62974;49.460;10.892;2023-01-28T10:22:27;2.25;;;1.10;;
73084;SDS011;62974;49.460;10.892;2023-01-28T10:25:01;4.30;;;2.22;;
73084;SDS011;62974;49.460;10.892;2023-01-28T10:27:33;1.83;;;1.30;;
73084;SDS011;62974;49.460;10.892;2023-01-28T10:30:08;4.75;;;1.73;;
73084;SDS011;62974;49.460;10.892;2023-01-28T10:32:45;2.08;;;1.10;;
73084;SDS011;62974;49.460;10.892;2023-01-28T10:35:17;1.42;;;1.00;;
73084;SDS011;62974;49.460;10.892;2023-01-28T10:37:46;1.00;;;0.45;;
73084;SDS011;62974;49.460;10.892;2023-01-28T10:42:43;2.30;;;1.10;;
73084;SDS011;62974;49.460;10.892;2023-01-28T10:45:16;3.33;;;1.20;;
73084;SDS011;62974;49.460;10.892;2023-01-28T10:47:48;1.10;;;0.47;;
73084;SDS011;62974;49.460;10.892;2023-01-28T10:50:21;2.35;;;1.27;;
73084;SDS011;62974;49.460;10.892;2023-01-28T10:52:52;0.30;;;0.30;;
73084;SDS011;62974;49.460;10.892;2023-01-28T10:55:20;2.47;;;1.05;;
73084;SDS011;62974;49.460;10.892;2023-01-28T10:57:50;1.75;;;0.70;;
73084;SDS011;62974;49.460;10.892;2023-01-28T11:00:22;1.58;;;0.90;;
73084;SDS011;62974;49.460;10.892;2023-01-28T11:02:52;1.88;;;0.80;;
73084;SDS011;62974;49.460;10.892;2023-01-28T11:05:21;2.10;;;1.02;;
73084;SDS011;62974;49.460;10.892;2023-01-28T11:08:02;2.00;;;0.93;;
73084;SDS011;62974;49.460;10.892;2023-01-28T11:10:32;1.95;;;0.70;;
73084;SDS011;62974;49.460;10.892;2023-01-28T11:13:02;3.15;;;1.45;;
73084;SDS011;62974;49.460;10.892;2023-01-28T11:15:31;3.15;;;1.17;;
73084;SDS011;62974;49.460;10.892;2023-01-28T11:18:00;1.90;;;0.88;;
73084;SDS011;62974;49.460;10.892;2023-01-28T11:20:36;1.00;;;0.65;;
73084;SDS011;62974;49.460;10.892;2023-01-28T11:23:14;2.08;;;1.38;;
73084;SDS011;62974;49.460;10.892;2023-01-28T11:25:45;0.73;;;0.38;;
73084;SDS011;62974;49.460;10.892;2023-01-28T11:28:15;1.80;;;0.88;;
73084;SDS011;62974;49.460;10.892;2023-01-28T11:30:48;2.42;;;0.70;;
73084;SDS011;62974;49.460;10.892;2023-01-28T11:33:18;1.20;;;0.60;;
73084;SDS011;62974;49.460;10.892;2023-01-28T11:35:52;4.00;;;1.60;;
73084;SDS011;62974;49.460;10.892;2023-01-28T11:38:22;3.80;;;1.98;;
73084;SDS011;62974;49.460;10.892;2023-01-28T11:40:51;2.13;;;0.80;;
73084;SDS011;62974;49.460;10.892;2023-01-28T11:43:21;1.90;;;0.95;;
73084;SDS011;62974;49.460;10.892;2023-01-28T11:45:53;1.00;;;0.82;;
73084;SDS011;62974;49.460;10.892;2023-01-28T11:48:32;2.35;;;1.40;;
73084;SDS011;62974;49.460;10.892;2023-01-28T11:51:11;1.65;;;0.95;;
73084;SDS011;62974;49.460;10.892;2023-01-28T11:54:05;4.50;;;1.33;;
73084;SDS011;62974;49.460;10.892;2023-01-28T11:56:45;2.28;;;1.40;;
73084;SDS011;62974;49.460;10.892;2023-01-28T11:59:30;2.88;;;1.48;;
73084;SDS011;62974;49.460;10.892;2023-01-28T12:02:21;3.05;;;1.67;;
73084;SDS011;62974;49.460;10.892;2023-01-28T12:05:07;3.63;;;1.30;;
73084;SDS011;62974;49.460;10.892;2023-01-28T12:07:46;3.40;;;1.38;;
73084;SDS011;62974;49.460;10.892;2023-01-28T12:10:23;3.38;;;1.75;;
73084;SDS011;62974;49.460;10.892;2023-01-28T12:13:06;4.38;;;1.48;;
73084;SDS011;62974;49.460;10.892;2023-01-28T12:15:50;0.77;;;0.50;;
73084;SDS011;62974;49.460;10.892;2023-01-28T12:18:35;2.05;;;1.08;;
73084;SDS011;62974;49.460;10.892;2023-01-28T12:21:19;3.03;;;1.40;;
73084;SDS011;62974;49.460;10.892;2023-01-28T12:23:54;2.72;;;1.40;;
73084;SDS011;62974;49.460;10.892;2023-01-28T12:26:33;2.65;;;1.40;;
73084;SDS011;62974;49.460;10.892;2023-01-28T12:29:14;1.85;;;0.85;;
73084;SDS011;62974;49.460;10.892;2023-01-28T12:31:52;2.63;;;1.58;;
73084;SDS011;62974;49.460;10.892;2023-01-28T12:34:35;3.65;;;1.77;;
73084;SDS011;62974;49.460;10.892;2023-01-28T12:37:23;6.38;;;1.80;;
73084;SDS011;62974;49.460;10.892;2023-01-28T12:40:03;0.22;;;0.22;;
73084;SDS011;62974;49.460;10.892;2023-01-28T12:42:45;3.05;;;1.90;;
73084;SDS011;62974;49.460;10.892;2023-01-28T12:45:18;3.90;;;1.73;;
73084;SDS011;62974;49.460;10.892;2023-01-28T12:47:51;4.32;;;1.20;;
73084;SDS011;62974;49.460;10.892;2023-01-28T12:50:22;2.03;;;1.38;;
73084;SDS011;62974;49.460;10.892;2023-01-28T12:52:54;3.10;;;1.40;;
73084;SDS011;62974;49.460;10.892;2023-01-28T12:55:31;3.83;;;1.83;;
73084;SDS011;62974;49.460;10.892;2023-01-28T12:58:09;1.35;;;1.05;;
73084;SDS011;62974;49.460;10.892;2023-01-28T13:00:42;1.17;;;0.77;;
73084;SDS011;62974;49.460;10.892;2023-01-28T13:03:15;3.33;;;1.70;;
73084;SDS011;62974;49.460;10.892;2023-01-28T13:05:48;3.47;;;1.80;;
73084;SDS011;62974;49.460;10.892;2023-01-28T13:08:18;3.03;;;1.90;;
73084;SDS011;62974;49.460;10.892;2023-01-28T13:10:50;2.38;;;1.15;;
73084;SDS011;62974;49.460;10.892;2023-01-28T13:13:21;1.90;;;1.10;;
73084;SDS011;62974;49.460;10.892;2023-01-28T13:15:55;2.22;;;0.82;;
73084;SDS011;62974;49.460;10.892;2023-01-28T13:18:30;0.85;;;0.60;;
73084;SDS011;62974;49.460;10.892;2023-01-28T13:21:00;1.65;;;0.82;;
73084;SDS011;62974;49.460;10.892;2023-01-28T13:23:40;4.15;;;1.25;;
73084;SDS011;62974;49.460;10.892;2023-01-28T13:26:10;2.55;;;1.40;;
73084;SDS011;62974;49.460;10.892;2023-01-28T13:29:05;3.15;;;1.05;;
73084;SDS011;62974;49.460;10.892;2023-01-28T13:31:38;2.67;;;1.63;;
73084;SDS011;62974;49.460;10.892;2023-01-28T13:34:07;4.43;;;2.10;;
73084;SDS011;62974;49.460;10.892;2023-01-28T13:36:37;5.60;;;1.30;;
73084;SDS011;62974;49.460;10.892;2023-01-28T13:39:14;2.75;;;1.42;;
73084;SDS011;62974;49.460;10.892;2023-01-28T13:41:45;1.88;;;1.15;;
73084;SDS011;62974;49.460;10.892;2023-01-28T13:44:20;5.40;;;1.95;;
73084;SDS011;62974;49.460;10.892;2023-01-28T13:46:53;2.53;;;1.42;;
73084;SDS011;62974;49.460;10.892;2023-01-28T13:49:28;2.35;;;1.48;;
73084;SDS011;62974;49.460;10.892;2023-01-28T13:52:00;1.45;;;0.68;;
73084;SDS011;62974;49.460;10.892;2023-01-28T13:54:34;0.30;;;0.30;;
73084;SDS011;62974;49.460;10.892;2023-01-28T13:57:25;4.90;;;2.75;;
73084;SDS011;62974;49.460;10.892;2023-01-28T14:00:35;1.80;;;1.10;;
73084;SDS011;62974;49.460;10.892;2023-01-28T14:03:19;3.80;;;1.90;;
73084;SDS011;62974;49.460;10.892;2023-01-28T14:06:24;3.58;;;2.08;;
73084;SDS011;62974;49.460;10.892;2023-01-28T14:09:13;2.83;;;1.38;;
73084;SDS011;62974;49.460;10.892;2023-01-28T14:15:17;6.20;;;2.03;;
73084;SDS011;62974;49.460;10.892;2023-01-28T14:17:53;2.22;;;1.40;;
73084;SDS011;62974;49.460;10.892;2023-01-28T14:20:25;4.00;;;2.22;;
73084;SDS011;62974;49.460;10.892;2023-01-28T14:22:57;4.07;;;2.45;;
73084;SDS011;62974;49.460;10.892;2023-01-28T14:25:28;6.05;;;2.72;;
73084;SDS011;62974;49.460;10.892;2023-01-28T14:28:02;4.40;;;2.22;;
73084;SDS011;62974;49.460;10.892;2023-01-28T14:30:35;6.68;;;2.10;;
73084;SDS011;62974;49.460;10.892;2023-01-28T14:33:10;7.13;;;3.25;;
73084;SDS011;62974;49.460;10.892;2023-01-28T14:38:11;5.72;;;1.70;;
73084;SDS011;62974;49.460;10.892;2023-01-28T14:40:42;5.68;;;2.95;;
73084;SDS011;62974;49.460;10.892;2023-01-28T14:43:13;7.72;;;3.22;;
73084;SDS011;62974;49.460;10.892;2023-01-28T14:45:51;4.80;;;2.90;;
73084;SDS011;62974;49.460;10.892;2023-01-28T14:48:42;4.03;;;1.63;;
73084;SDS011;62974;49.460;10.892;2023-01-28T14:51:22;5.75;;;2.85;;
73084;SDS011;62974;49.460;10.892;2023-01-28T14:54:16;7.72;;;4.20;;
73084;SDS011;62974;49.460;10.892;2023-01-28T14:57:15;6.50;;;3.50;;
73084;SDS011;62974;49.460;10.892;2023-01-28T14:59:56;9.07;;;1.85;;
73084;SDS011;62974;49.460;10.892;2023-01-28T15:02:26;7.85;;;4.43;;
73084;SDS011;62974;49.460;10.892;2023-01-28T15:05:07;4.88;;;2.97;;
73084;SDS011;62974;49.460;10.892;2023-01-28T15:07:35;9.68;;;6.88;;
73084;SDS011;62974;49.460;10.892;2023-01-28T15:10:04;7.72;;;3.28;;
73084;SDS011;62974;49.460;10.892;2023-01-28T15:12:34;4.93;;;2.80;;
73084;SDS011;62974;49.460;10.892;2023-01-28T15:15:08;9.13;;;3.78;;
73084;SDS011;62974;49.460;10.892;2023-01-28T15:17:37;8.80;;;4.40;;
73084;SDS011;62974;49.460;10.892;2023-01-28T15:20:05;3.25;;;1.88;;
73084;SDS011;62974;49.460;10.892;2023-01-28T15:22:35;6.18;;;3.22;;
73084;SDS011;62974;49.460;10.892;2023-01-28T15:25:04;7.30;;;3.78;;
73084;SDS011;62974;49.460;10.892;2023-01-28T15:27:32;2.72;;;1.40;;
73084;SDS011;62974;49.460;10.892;2023-01-28T15:30:00;6.05;;;2.75;;
73084;SDS011;62974;49.460;10.892;2023-01-28T15:32:28;3.60;;;1.65;;